Buoy 43560

sailwx.info

Track history (hours):
 
Tides and Currents Weather Stations Pressure Air Temp Water Temp Dewpoint Dewpoint Depression Visibility Wind Speed Wind Dir Waves Ship Positions

Yuehuilaiyu43560

Last reported at 2015-Jul-14 21:06 UTC. Time now 2015-Aug-29 19:04 UTC.
Position N 29°34' W 092°29'.
Warning: this ship's position is 45 days out of date.

Length 24 m.

Type: Fishing. MMSI: 412466948.

Water temperature 32.6 ° C

Date/timePositionNaut miles runAvg speedWind from/ knotsBaromVisibWave heightAir tempDewpointWater temp
2015-Jul-14 21:06N 29°34' W 092°29'0 0.0 32.6
2015-Jul-14 12:16N 29°34' W 092°29'0 0.3 28.2
2015-Jul-14 11:39N 29°34' W 092°29'0 0.2 28.0
2015-Jul-14 10:36N 29°34' W 092°28'0 0.1
2015-Jul-14 09:46N 29°34' W 092°28'0 6.5
2015-Jul-14 09:44N 29°34' W 092°29'0 0.0 25.8
2015-Jul-14 08:07N 29°34' W 092°29'0 0.8 25.7
2015-Jul-14 08:01N 29°34' W 092°29'0 0.0 25.7
2015-Jul-14 04:36N 29°34' W 092°29'0 0.0 28.0
2015-Jul-14 03:54N 29°34' W 092°29'0 0.0 28.0
2015-Jul-14 02:55N 29°34' W 092°29'0 0.0 28.1
2015-Jul-13 22:08N 29°34' W 092°29'0 0.2 33.4
2015-Jul-13 21:14N 29°34' W 092°29'0 0.0 33.3
2015-Jul-13 12:11N 29°34' W 092°28'0 0.0 24.9
2015-Jul-13 12:08N 29°34' W 092°28'0 0.1 24.9
2015-Jul-13 08:15N 29°34' W 092°29'021.7 26.4
2015-Jul-13 08:14N 29°34' W 092°29'0 0.0 26.4
2015-Jul-13 04:09N 29°34' W 092°29'1 0.2 28.6
2015-Jul-13 01:01N 29°34' W 092°28'0 0.1 29.6
2015-Jul-12 23:59N 29°34' W 092°28'0 0.4 31.4
2015-Jul-12 23:46N 29°34' W 092°28'010.1
2015-Jul-12 23:45N 29°34' W 092°29'0 0.1 32.2
2015-Jul-12 22:16N 29°34' W 092°29'0 0.0
2015-Jul-12 19:55N 29°34' W 092°29'0 0.1 33.1
2015-Jul-12 16:03N 29°34' W 092°28'1 0.3 29.9
2015-Jul-12 11:00N 29°33' W 092°30'0 0.0 26.0
2015-Jul-12 10:52N 29°33' W 092°30'0 0.0 26.0
2015-Jul-12 10:08N 29°33' W 092°30'3 0.4 26.2
2015-Jul-12 02:57N 29°30' W 092°30'1 0.4 31.9
2015-Jul-12 00:10N 29°29' W 092°29'6 1.5 32.2
2015-Jul-11 20:00N 29°26' W 092°23'3 1.9 32.2
2015-Jul-11 18:21N 29°25' W 092°20'4 3.7 32.2
2015-Jul-11 17:12N 29°26' W 092°15'0 0.0 31.9
2015-Jul-11 16:25N 29°26' W 092°15'0 0.0 31.5
2015-Jul-11 15:39N 29°26' W 092°15'3 1.1 31.2
2015-Jul-11 13:13N 29°26' W 092°12'1 1.5 30.6
2015-Jul-11 12:53N 29°27' W 092°12'0 0.0 30.6
2015-Jul-11 12:50N 29°27' W 092°12'1 0.7 30.6
2015-Jul-11 11:35N 29°27' W 092°11'0 0.3 30.6
2015-Jul-11 11:20N 29°27' W 092°11'0 0.6 30.6
2015-Jul-11 11:15N 29°27' W 092°11'0 0.8 30.6
2015-Jul-11 11:11N 29°27' W 092°11'1 9.9 30.6
2015-Jul-11 11:04N 29°27' W 092°10'0 0.1 30.6
2015-Jul-11 10:22N 29°27' W 092°10'0 0.1 30.6
2015-Jul-11 08:42N 29°27' W 092°10'325.8 31.1
2015-Jul-11 08:36N 29°26' W 092°07'0 0.0 31.1
2015-Jul-11 07:01N 29°26' W 092°07'4 1.4 30.8
2015-Jul-11 03:58N 29°23' W 092°04'2 1.2 30.8
2015-Jul-11 02:02N 29°21' W 092°02'359.6 31.5
2015-Jul-11 01:59N 29°19' W 091°59'3 1.5 31.5
2015-Jul-11 00:19N 29°17' W 091°58'0 0.0 31.5
2015-Jul-10 23:01N 29°17' W 091°58'0 1.0 31.6
2015-Jul-10 22:56N 29°17' W 091°58'5 4.8 31.6
2015-Jul-10 21:52N 29°15' W 091°52'0 0.0 31.8
2015-Jul-10 21:01N 29°15' W 091°52'0 0.0
2015-Jul-10 20:17N 29°15' W 091°52'5 1.2 31.6
2015-Jul-10 15:58N 29°16' W 091°47'0 0.0 31.3
2015-Jul-10 15:08N 29°16' W 091°47'3 1.3 31.0
2015-Jul-10 13:06N 29°16' W 091°43'0 0.0 30.0
2015-Jul-10 13:01N 29°16' W 091°43'115.8
2015-Jul-10 12:58N 29°16' W 091°43'1 0.5 30.1
2015-Jul-10 11:19N 29°15' W 091°42'2 0.6 30.5
2015-Jul-10 07:12N 29°13' W 091°41'4 0.8 30.5
2015-Jul-10 02:45N 29°10' W 091°39'2 1.9 31.5
2015-Jul-10 01:56N 29°09' W 091°38'1 1.1 31.5
2015-Jul-10 01:01N 29°08' W 091°38'2 1.0
2015-Jul-09 22:58N 29°07' W 091°35'3 0.3 31.7
2015-Jul-09 12:08N 29°06' W 091°32'1 0.5 30.2
2015-Jul-09 09:01N 29°05' W 091°31'1 7.8 30.2
2015-Jul-09 08:56N 29°04' W 091°31'1 0.3 30.2
2015-Jul-09 04:45N 29°04' W 091°30'0 0.4 30.5
2015-Jul-09 04:00N 29°03' W 091°30'113.4
2015-Jul-09 03:57N 29°03' W 091°31'0 0.2 30.5
2015-Jul-09 02:59N 29°03' W 091°31'1 0.6 30.5
2015-Jul-09 00:47N 29°02' W 091°31'0 0.4 30.7
2015-Jul-08 23:50N 29°02' W 091°32'0 0.0 30.7
2015-Jul-08 23:06N 29°02' W 091°32'1 1.3 30.7
2015-Jul-08 22:01N 29°01' W 091°33'1 0.4 30.7
2015-Jul-08 18:57N 28°59' W 091°34'2 0.5 30.3
2015-Jul-08 15:50N 28°59' W 091°35'1 1.6 29.9
2015-Jul-08 14:55N 28°58' W 091°36'0 0.0 29.8
2015-Jul-08 14:06N 28°58' W 091°36'0 0.0 29.8
2015-Jul-08 13:08N 28°58' W 091°36'1 0.9 29.7
2015-Jul-08 11:45N 28°57' W 091°37'0 1.9
2015-Jul-08 11:30N 28°56' W 091°37'0 0.7 29.8
2015-Jul-08 10:53N 28°56' W 091°38'2 2.1 29.9
2015-Jul-08 10:01N 28°54' W 091°39'0 0.1 29.9
2015-Jul-08 09:13N 28°54' W 091°39'216.8 29.9
2015-Jul-08 09:06N 28°53' W 091°40'4 1.0 29.9
2015-Jul-08 05:02N 28°49' W 091°40'2 0.3 30.1
2015-Jul-07 23:17N 28°47' W 091°40'1 0.1 30.5
2015-Jul-07 19:08N 28°47' W 091°40'0 3.1 30.2
2015-Jul-07 19:01N 28°47' W 091°40'2 1.1 30.2
2015-Jul-07 17:00N 28°48' W 091°42'2 0.7 29.9
2015-Jul-07 14:28N 28°47' W 091°44'4 2.8 29.8
2015-Jul-07 12:54N 28°43' W 091°47'0 0.4 29.7
2015-Jul-07 12:01N 28°44' W 091°47'213.1 29.8
2015-Jul-07 11:54N 28°42' W 091°47'2 1.4 29.8
2015-Jul-07 10:21N 28°40' W 091°48'1 6.4 29.8
2015-Jul-07 10:16N 28°40' W 091°48'2 2.1 29.9
2015-Jul-07 09:30N 28°39' W 091°48'0 0.0 29.9
2015-Jul-07 09:24N 28°39' W 091°48'8 1.5 29.9
2015-Jul-07 03:45N 28°32' W 091°43'0 2.5 30.1
2015-Jul-07 03:41N 28°32' W 091°43'1 1.1 30.1
2015-Jul-07 02:59N 28°31' W 091°42'1 2.3 30.1
2015-Jul-07 02:26N 28°31' W 091°41'0 0.0 30.3
2015-Jul-07 02:06N 28°31' W 091°41'217.9 30.3
2015-Jul-07 02:00N 28°32' W 091°39'1 0.3 30.3
2015-Jul-06 23:31N 28°33' W 091°39'0 5.1 30.4
2015-Jul-06 23:26N 28°33' W 091°39'1 1.3 30.4
2015-Jul-06 22:59N 28°33' W 091°39'0 1.1 30.5
2015-Jul-06 22:56N 28°33' W 091°39'0 0.2 30.5
2015-Jul-06 21:47N 28°33' W 091°39'1 0.8 30.5
2015-Jul-06 21:01N 28°34' W 091°39'0 1.0 30.3
2015-Jul-06 20:56N 28°34' W 091°39'1 0.9 30.3
2015-Jul-06 19:16N 28°33' W 091°41'4 1.2 30.2
2015-Jul-06 15:46N 28°31' W 091°44'1 1.6 29.9
2015-Jul-06 14:51N 28°29' W 091°45'4 1.1 29.8
2015-Jul-06 10:52N 28°25' W 091°46'5 0.5 29.8
2015-Jul-06 01:21N 28°23' W 091°41'1 0.3 29.9
2015-Jul-05 23:20N 28°24' W 091°42'1 1.1 30.1
2015-Jul-05 22:04N 28°24' W 091°43'0 1.9 30.1
2015-Jul-05 21:59N 28°24' W 091°43'0 0.2 30.1
2015-Jul-05 21:07N 28°23' W 091°43'4 0.9 30.0
2015-Jul-05 16:49N 28°20' W 091°45'230.5 29.9
2015-Jul-05 16:46N 28°21' W 091°45'2 1.8 29.9
2015-Jul-05 15:54N 28°20' W 091°45'0 0.0
2015-Jul-05 15:13N 28°20' W 091°45'2 0.8 29.8
2015-Jul-05 13:01N 28°18' W 091°44'1 0.9 29.9
2015-Jul-05 12:16N 28°18' W 091°44'113.8 30.0
2015-Jul-05 12:12N 28°17' W 091°43'0 0.0 30.0
2015-Jul-05 12:06N 28°17' W 091°43'0 0.6 30.0
2015-Jul-05 11:24N 28°17' W 091°43'4 1.2 30.0
2015-Jul-05 08:13N 28°16' W 091°39'0 0.6 30.0
2015-Jul-05 08:08N 28°16' W 091°39'334.7 30.0
2015-Jul-05 08:02N 28°16' W 091°35'0 0.0 30.0
2015-Jul-05 02:46N 28°17' W 091°35'0 0.3 30.1
2015-Jul-05 02:02N 28°17' W 091°35'2 0.8 30.2
2015-Jul-04 23:54N 28°17' W 091°37'0 4.8 30.4
2015-Jul-04 23:50N 28°16' W 091°37'0 6.4
2015-Jul-04 23:47N 28°17' W 091°37'1 0.9 30.5
2015-Jul-04 22:13N 28°16' W 091°39'0 3.2 30.5
2015-Jul-04 22:10N 28°16' W 091°39'0 2.7 30.5
2015-Jul-04 22:04N 28°16' W 091°39'0 5.4 30.5
2015-Jul-04 22:01N 28°16' W 091°39'0 0.6 30.4
2015-Jul-04 21:16N 28°16' W 091°39'   30.2
Track history (hours):
 
Tides and Currents Weather Stations Pressure Air Temp Water Temp Dewpoint Dewpoint Depression Visibility Wind Speed Wind Dir Waves Ship Positions

Yuehuilaiyu43560

Last reported at 2015-Jul-14 21:06 UTC. Time now 2015-Aug-29 19:04 UTC.
Position N 29°34' W 092°29'.
Warning: this ship's position is 45 days out of date.

Length 24 m.

Type: Fishing. MMSI: 412466948.

Water temperature 32.6 ° C

Date/timePositionNaut miles runAvg speedWind from/ knotsBaromVisibWave heightAir tempDewpointWater temp
2015-Jul-14 21:06N 29°34' W 092°29'0 0.0 32.6
2015-Jul-14 12:16N 29°34' W 092°29'0 0.3 28.2
2015-Jul-14 11:39N 29°34' W 092°29'0 0.2 28.0
2015-Jul-14 10:36N 29°34' W 092°28'0 0.1
2015-Jul-14 09:46N 29°34' W 092°28'0 6.5
2015-Jul-14 09:44N 29°34' W 092°29'0 0.0 25.8
2015-Jul-14 08:07N 29°34' W 092°29'0 0.8 25.7
2015-Jul-14 08:01N 29°34' W 092°29'0 0.0 25.7
2015-Jul-14 04:36N 29°34' W 092°29'0 0.0 28.0
2015-Jul-14 03:54N 29°34' W 092°29'0 0.0 28.0
2015-Jul-14 02:55N 29°34' W 092°29'0 0.0 28.1
2015-Jul-13 22:08N 29°34' W 092°29'0 0.2 33.4
2015-Jul-13 21:14N 29°34' W 092°29'0 0.0 33.3
2015-Jul-13 12:11N 29°34' W 092°28'0 0.0 24.9
2015-Jul-13 12:08N 29°34' W 092°28'0 0.1 24.9
2015-Jul-13 08:15N 29°34' W 092°29'021.7 26.4
2015-Jul-13 08:14N 29°34' W 092°29'0 0.0 26.4
2015-Jul-13 04:09N 29°34' W 092°29'1 0.2 28.6
2015-Jul-13 01:01N 29°34' W 092°28'0 0.1 29.6
2015-Jul-12 23:59N 29°34' W 092°28'0 0.4 31.4
2015-Jul-12 23:46N 29°34' W 092°28'010.1
2015-Jul-12 23:45N 29°34' W 092°29'0 0.1 32.2
2015-Jul-12 22:16N 29°34' W 092°29'0 0.0
2015-Jul-12 19:55N 29°34' W 092°29'0 0.1 33.1
2015-Jul-12 16:03N 29°34' W 092°28'1 0.3 29.9
2015-Jul-12 11:00N 29°33' W 092°30'0 0.0 26.0
2015-Jul-12 10:52N 29°33' W 092°30'0 0.0 26.0
2015-Jul-12 10:08N 29°33' W 092°30'3 0.4 26.2
2015-Jul-12 02:57N 29°30' W 092°30'1 0.4 31.9
2015-Jul-12 00:10N 29°29' W 092°29'6 1.5 32.2
2015-Jul-11 20:00N 29°26' W 092°23'3 1.9 32.2
2015-Jul-11 18:21N 29°25' W 092°20'4 3.7 32.2
2015-Jul-11 17:12N 29°26' W 092°15'0 0.0 31.9
2015-Jul-11 16:25N 29°26' W 092°15'0 0.0 31.5
2015-Jul-11 15:39N 29°26' W 092°15'3 1.1 31.2
2015-Jul-11 13:13N 29°26' W 092°12'1 1.5 30.6
2015-Jul-11 12:53N 29°27' W 092°12'0 0.0 30.6
2015-Jul-11 12:50N 29°27' W 092°12'1 0.7 30.6
2015-Jul-11 11:35N 29°27' W 092°11'0 0.3 30.6
2015-Jul-11 11:20N 29°27' W 092°11'0 0.6 30.6
2015-Jul-11 11:15N 29°27' W 092°11'0 0.8 30.6
2015-Jul-11 11:11N 29°27' W 092°11'1 9.9 30.6
2015-Jul-11 11:04N 29°27' W 092°10'0 0.1 30.6
2015-Jul-11 10:22N 29°27' W 092°10'0 0.1 30.6
2015-Jul-11 08:42N 29°27' W 092°10'325.8 31.1
2015-Jul-11 08:36N 29°26' W 092°07'0 0.0 31.1
2015-Jul-11 07:01N 29°26' W 092°07'4 1.4 30.8
2015-Jul-11 03:58N 29°23' W 092°04'2 1.2 30.8
2015-Jul-11 02:02N 29°21' W 092°02'359.6 31.5
2015-Jul-11 01:59N 29°19' W 091°59'3 1.5 31.5
2015-Jul-11 00:19N 29°17' W 091°58'0 0.0 31.5
2015-Jul-10 23:01N 29°17' W 091°58'0 1.0 31.6
2015-Jul-10 22:56N 29°17' W 091°58'5 4.8 31.6
2015-Jul-10 21:52N 29°15' W 091°52'0 0.0 31.8
2015-Jul-10 21:01N 29°15' W 091°52'0 0.0
2015-Jul-10 20:17N 29°15' W 091°52'5 1.2 31.6
2015-Jul-10 15:58N 29°16' W 091°47'0 0.0 31.3
2015-Jul-10 15:08N 29°16' W 091°47'3 1.3 31.0
2015-Jul-10 13:06N 29°16' W 091°43'0 0.0 30.0
2015-Jul-10 13:01N 29°16' W 091°43'115.8
2015-Jul-10 12:58N 29°16' W 091°43'1 0.5 30.1
2015-Jul-10 11:19N 29°15' W 091°42'2 0.6 30.5
2015-Jul-10 07:12N 29°13' W 091°41'4 0.8 30.5
2015-Jul-10 02:45N 29°10' W 091°39'2 1.9 31.5
2015-Jul-10 01:56N 29°09' W 091°38'1 1.1 31.5
2015-Jul-10 01:01N 29°08' W 091°38'2 1.0
2015-Jul-09 22:58N 29°07' W 091°35'3 0.3 31.7
2015-Jul-09 12:08N 29°06' W 091°32'1 0.5 30.2
2015-Jul-09 09:01N 29°05' W 091°31'1 7.8 30.2
2015-Jul-09 08:56N 29°04' W 091°31'1 0.3 30.2
2015-Jul-09 04:45N 29°04' W 091°30'0 0.4 30.5
2015-Jul-09 04:00N 29°03' W 091°30'113.4
2015-Jul-09 03:57N 29°03' W 091°31'0 0.2 30.5
2015-Jul-09 02:59N 29°03' W 091°31'1 0.6 30.5
2015-Jul-09 00:47N 29°02' W 091°31'0 0.4 30.7
2015-Jul-08 23:50N 29°02' W 091°32'0 0.0 30.7
2015-Jul-08 23:06N 29°02' W 091°32'1 1.3 30.7
2015-Jul-08 22:01N 29°01' W 091°33'1 0.4 30.7
2015-Jul-08 18:57N 28°59' W 091°34'2 0.5 30.3
2015-Jul-08 15:50N 28°59' W 091°35'1 1.6 29.9
2015-Jul-08 14:55N 28°58' W 091°36'0 0.0 29.8
2015-Jul-08 14:06N 28°58' W 091°36'0 0.0 29.8
2015-Jul-08 13:08N 28°58' W 091°36'1 0.9 29.7
2015-Jul-08 11:45N 28°57' W 091°37'0 1.9
2015-Jul-08 11:30N 28°56' W 091°37'0 0.7 29.8
2015-Jul-08 10:53N 28°56' W 091°38'2 2.1 29.9
2015-Jul-08 10:01N 28°54' W 091°39'0 0.1 29.9
2015-Jul-08 09:13N 28°54' W 091°39'216.8 29.9
2015-Jul-08 09:06N 28°53' W 091°40'4 1.0 29.9
2015-Jul-08 05:02N 28°49' W 091°40'2 0.3 30.1
2015-Jul-07 23:17N 28°47' W 091°40'1 0.1 30.5
2015-Jul-07 19:08N 28°47' W 091°40'0 3.1 30.2
2015-Jul-07 19:01N 28°47' W 091°40'2 1.1 30.2
2015-Jul-07 17:00N 28°48' W 091°42'2 0.7 29.9
2015-Jul-07 14:28N 28°47' W 091°44'4 2.8 29.8
2015-Jul-07 12:54N 28°43' W 091°47'0 0.4 29.7
2015-Jul-07 12:01N 28°44' W 091°47'213.1 29.8
2015-Jul-07 11:54N 28°42' W 091°47'2 1.4 29.8
2015-Jul-07 10:21N 28°40' W 091°48'1 6.4 29.8
2015-Jul-07 10:16N 28°40' W 091°48'2 2.1 29.9
2015-Jul-07 09:30N 28°39' W 091°48'0 0.0 29.9
2015-Jul-07 09:24N 28°39' W 091°48'8 1.5 29.9
2015-Jul-07 03:45N 28°32' W 091°43'0 2.5 30.1
2015-Jul-07 03:41N 28°32' W 091°43'1 1.1 30.1
2015-Jul-07 02:59N 28°31' W 091°42'1 2.3 30.1
2015-Jul-07 02:26N 28°31' W 091°41'0 0.0 30.3
2015-Jul-07 02:06N 28°31' W 091°41'217.9 30.3
2015-Jul-07 02:00N 28°32' W 091°39'1 0.3 30.3
2015-Jul-06 23:31N 28°33' W 091°39'0 5.1 30.4
2015-Jul-06 23:26N 28°33' W 091°39'1 1.3 30.4
2015-Jul-06 22:59N 28°33' W 091°39'0 1.1 30.5
2015-Jul-06 22:56N 28°33' W 091°39'0 0.2 30.5
2015-Jul-06 21:47N 28°33' W 091°39'1 0.8 30.5
2015-Jul-06 21:01N 28°34' W 091°39'0 1.0 30.3
2015-Jul-06 20:56N 28°34' W 091°39'1 0.9 30.3
2015-Jul-06 19:16N 28°33' W 091°41'4 1.2 30.2
2015-Jul-06 15:46N 28°31' W 091°44'1 1.6 29.9
2015-Jul-06 14:51N 28°29' W 091°45'4 1.1 29.8
2015-Jul-06 10:52N 28°25' W 091°46'5 0.5 29.8
2015-Jul-06 01:21N 28°23' W 091°41'1 0.3 29.9
2015-Jul-05 23:20N 28°24' W 091°42'1 1.1 30.1
2015-Jul-05 22:04N 28°24' W 091°43'0 1.9 30.1
2015-Jul-05 21:59N 28°24' W 091°43'0 0.2 30.1
2015-Jul-05 21:07N 28°23' W 091°43'4 0.9 30.0
2015-Jul-05 16:49N 28°20' W 091°45'230.5 29.9
2015-Jul-05 16:46N 28°21' W 091°45'2 1.8 29.9
2015-Jul-05 15:54N 28°20' W 091°45'0 0.0
2015-Jul-05 15:13N 28°20' W 091°45'2 0.8 29.8
2015-Jul-05 13:01N 28°18' W 091°44'1 0.9 29.9
2015-Jul-05 12:16N 28°18' W 091°44'113.8 30.0
2015-Jul-05 12:12N 28°17' W 091°43'0 0.0 30.0
2015-Jul-05 12:06N 28°17' W 091°43'0 0.6 30.0
2015-Jul-05 11:24N 28°17' W 091°43'4 1.2 30.0
2015-Jul-05 08:13N 28°16' W 091°39'0 0.6 30.0
2015-Jul-05 08:08N 28°16' W 091°39'334.7 30.0
2015-Jul-05 08:02N 28°16' W 091°35'0 0.0 30.0
2015-Jul-05 02:46N 28°17' W 091°35'0 0.3 30.1
2015-Jul-05 02:02N 28°17' W 091°35'2 0.8 30.2
2015-Jul-04 23:54N 28°17' W 091°37'0 4.8 30.4
2015-Jul-04 23:50N 28°16' W 091°37'0 6.4
2015-Jul-04 23:47N 28°17' W 091°37'1 0.9 30.5
2015-Jul-04 22:13N 28°16' W 091°39'0 3.2 30.5
2015-Jul-04 22:10N 28°16' W 091°39'0 2.7 30.5
2015-Jul-04 22:04N 28°16' W 091°39'0 5.4 30.5
2015-Jul-04 22:01N 28°16' W 091°39'0 0.6 30.4
2015-Jul-04 21:16N 28°16' W 091°39'   30.2

Dump ship's entire track history